Time;durP1;ratioP1;P1;durP2;ratioP2;P2;SDS_P1;SDS_P2;PMS_P1;PMS_P2;Temp;Humidity;BMP_temperature;BMP_pressure;BME280_temperature;BME280_humidity;BME280_pressure;Samples;Min_cycle;Max_cycle;Signal;HPM_P1;HPM_P2
2024/03/31 00:00:20;;;;;;;25.17;20.47;;;;;;;;;;5074631;28;20467;-74
2024/03/31 00:02:46;;;;;;;25.30;18.87;;;;;;;;;;5074593;28;20224;-77
2024/03/31 00:05:12;;;;;;;23.43;18.40;;;;;;;;;;5075744;28;20432;-75
2024/03/31 00:07:38;;;;;;;26.07;19.97;;;;;;;;;;5076676;28;20458;-76
2024/03/31 00:10:05;;;;;;;26.80;20.20;;;;;;;;;;5077266;28;20448;-74
2024/03/31 00:12:30;;;;;;;26.53;20.10;;;;;;;;;;5072028;28;20209;-76
2024/03/31 00:14:57;;;;;;;27.30;19.33;;;;;;;;;;5075872;28;20448;-74
2024/03/31 00:17:24;;;;;;;26.80;19.63;;;;;;;;;;5072650;28;20213;-75
2024/03/31 00:19:51;;;;;;;26.73;20.77;;;;;;;;;;5073934;28;20528;-73
2024/03/31 00:22:16;;;;;;;27.07;21.80;;;;;;;;;;5074910;28;20456;-70
2024/03/31 00:24:43;;;;;;;25.23;20.47;;;;;;;;;;5076092;28;20446;-76
2024/03/31 00:27:09;;;;;;;22.77;19.13;;;;;;;;;;5076038;28;20201;-76
2024/03/31 00:29:35;;;;;;;28.63;20.00;;;;;;;;;;5075816;28;20440;-76
2024/03/31 00:32:01;;;;;;;23.40;19.30;;;;;;;;;;5070343;28;20218;-76
2024/03/31 00:34:29;;;;;;;29.50;19.10;;;;;;;;;;5075603;28;20436;-73
2024/03/31 00:36:54;;;;;;;36.63;22.33;;;;;;;;;;5076405;28;20248;-74
2024/03/31 00:39:21;;;;;;;31.63;22.17;;;;;;;;;;5074766;28;20460;-76
2024/03/31 00:41:46;;;;;;;29.50;22.60;;;;;;;;;;5074321;28;20206;-76
2024/03/31 00:44:13;;;;;;;31.57;23.13;;;;;;;;;;5075209;28;20456;-70
2024/03/31 00:46:38;;;;;;;27.23;21.17;;;;;;;;;;5075692;28;20206;-76
2024/03/31 00:49:05;;;;;;;31.30;24.47;;;;;;;;;;5076106;28;20449;-74
2024/03/31 00:51:31;;;;;;;33.00;26.13;;;;;;;;;;5076981;28;20650;-76
2024/03/31 00:53:58;;;;;;;40.43;28.47;;;;;;;;;;5074435;28;20484;-71
2024/03/31 00:56:24;;;;;;;40.97;28.97;;;;;;;;;;5078843;28;20460;-75
2024/03/31 00:58:50;;;;;;;36.13;26.17;;;;;;;;;;5073808;28;20451;-73
2024/03/31 01:01:16;;;;;;;36.83;25.87;;;;;;;;;;5071624;28;20213;-73
2024/03/31 01:03:42;;;;;;;32.90;24.70;;;;;;;;;;5074271;28;20441;-75
2024/03/31 01:06:09;;;;;;;25.83;21.80;;;;;;;;;;5070968;28;20202;-75
2024/03/31 01:08:38;;;;;;;33.40;22.40;;;;;;;;;;5074561;28;20482;-76
2024/03/31 01:11:03;;;;;;;35.37;21.80;;;;;;;;;;5076195;28;20990;-76
2024/03/31 01:13:30;;;;;;;28.90;21.43;;;;;;;;;;5075466;28;20876;-76
2024/03/31 01:15:55;;;;;;;25.33;18.30;;;;;;;;;;5076726;28;20202;-76
2024/03/31 01:18:22;;;;;;;24.13;18.53;;;;;;;;;;5075873;28;20805;-74
2024/03/31 01:20:47;;;;;;;25.93;20.63;;;;;;;;;;5074718;28;20615;-73
2024/03/31 01:23:15;;;;;;;26.70;22.47;;;;;;;;;;5073536;28;20451;-73
2024/03/31 01:25:42;;;;;;;31.77;21.90;;;;;;;;;;5075891;28;20202;-76
2024/03/31 01:28:09;;;;;;;31.00;21.80;;;;;;;;;;5073850;28;20455;-73
2024/03/31 01:30:34;;;;;;;27.00;21.00;;;;;;;;;;5076301;28;20443;-75
2024/03/31 01:33:01;;;;;;;32.97;21.40;;;;;;;;;;5071347;28;20450;-73
2024/03/31 01:35:26;;;;;;;30.47;22.60;;;;;;;;;;5078618;28;20223;-72
2024/03/31 01:37:53;;;;;;;31.80;21.10;;;;;;;;;;5078433;28;20447;-76
2024/03/31 01:40:19;;;;;;;31.63;22.47;;;;;;;;;;5076121;28;20282;-76
2024/03/31 01:42:47;;;;;;;29.10;21.30;;;;;;;;;;5076735;28;20444;-76
2024/03/31 01:45:13;;;;;;;38.37;24.33;;;;;;;;;;5077141;28;20877;-77
2024/03/31 01:47:39;;;;;;;28.53;21.97;;;;;;;;;;5076524;28;20471;-75
2024/03/31 01:50:05;;;;;;;31.60;24.00;;;;;;;;;;5075171;28;20209;-75
2024/03/31 01:52:32;;;;;;;39.33;27.80;;;;;;;;;;5079135;28;20447;-74
2024/03/31 01:54:58;;;;;;;35.63;27.90;;;;;;;;;;5081568;28;20236;-75
2024/03/31 01:57:24;;;;;;;36.30;27.60;;;;;;;;;;5079405;28;20460;-74
2024/03/31 01:59:51;;;;;;;34.57;26.27;;;;;;;;;;5080172;28;20579;-75
2024/03/31 02:02:18;;;;;;;32.67;23.53;;;;;;;;;;5078723;28;21334;-74
2024/03/31 02:04:43;;;;;;;33.10;24.23;;;;;;;;;;5081432;28;20443;-75
2024/03/31 02:07:11;;;;;;;34.77;25.30;;;;;;;;;;5078876;28;20509;-75
2024/03/31 02:09:36;;;;;;;33.20;25.63;;;;;;;;;;5076608;28;20205;-74
2024/03/31 02:12:03;;;;;;;37.90;27.80;;;;;;;;;;5073686;28;20440;-75
2024/03/31 02:14:28;;;;;;;37.00;26.20;;;;;;;;;;5076823;28;20213;-75
2024/03/31 02:16:56;;;;;;;43.40;29.10;;;;;;;;;;5076348;28;20571;-74
2024/03/31 02:19:23;;;;;;;42.47;30.57;;;;;;;;;;5078651;28;20213;-72
2024/03/31 02:21:49;;;;;;;50.63;33.13;;;;;;;;;;5078744;28;21016;-72
2024/03/31 02:24:15;;;;;;;49.60;33.53;;;;;;;;;;5072210;28;20452;-75
2024/03/31 02:26:41;;;;;;;44.17;32.10;;;;;;;;;;5078902;28;20452;-75
2024/03/31 02:29:07;;;;;;;53.27;37.50;;;;;;;;;;5073262;28;20213;-74
2024/03/31 02:31:33;;;;;;;53.43;39.00;;;;;;;;;;5074795;28;20446;-73
2024/03/31 02:34:02;;;;;;;57.23;37.60;;;;;;;;;;5079405;28;20213;-75
2024/03/31 02:36:28;;;;;;;54.20;36.83;;;;;;;;;;5077277;28;20448;-75
2024/03/31 02:38:54;;;;;;;52.97;34.10;;;;;;;;;;5076637;28;20460;-74
2024/03/31 02:41:20;;;;;;;48.70;35.50;;;;;;;;;;5076764;28;20483;-76
2024/03/31 02:43:46;;;;;;;52.97;38.40;;;;;;;;;;5079259;28;20213;-75
2024/03/31 02:46:13;;;;;;;49.30;35.00;;;;;;;;;;5077517;28;20955;-75
2024/03/31 02:48:38;;;;;;;45.20;35.30;;;;;;;;;;5076807;28;20296;-73
2024/03/31 02:51:06;;;;;;;54.80;34.70;;;;;;;;;;5080590;28;20445;-75
2024/03/31 02:53:31;;;;;;;52.50;37.17;;;;;;;;;;5076552;28;20224;-74
2024/03/31 02:55:58;;;;;;;55.67;38.27;;;;;;;;;;5079089;28;20444;-73
2024/03/31 02:58:24;;;;;;;51.73;37.43;;;;;;;;;;5077029;28;20213;-75
2024/03/31 03:00:50;;;;;;;51.93;35.20;;;;;;;;;;5078702;28;20472;-75
2024/03/31 03:03:16;;;;;;;51.60;35.50;;;;;;;;;;5079837;28;20214;-72
2024/03/31 03:05:42;;;;;;;52.70;34.77;;;;;;;;;;5077684;28;20442;-73
2024/03/31 03:08:09;;;;;;;52.57;35.07;;;;;;;;;;5076733;28;20235;-75
2024/03/31 03:10:35;;;;;;;56.53;36.80;;;;;;;;;;5074418;28;20539;-73
2024/03/31 03:13:01;;;;;;;48.33;35.60;;;;;;;;;;5080101;28;20469;-74
2024/03/31 03:15:28;;;;;;;48.53;36.33;;;;;;;;;;5076613;28;20452;-74
2024/03/31 03:17:55;;;;;;;46.67;33.20;;;;;;;;;;5076157;28;20258;-75
2024/03/31 03:20:21;;;;;;;43.47;32.00;;;;;;;;;;5067403;28;20496;-72
2024/03/31 03:22:46;;;;;;;29.23;23.30;;;;;;;;;;5075991;28;20460;-76
2024/03/31 03:25:15;;;;;;;40.30;30.03;;;;;;;;;;5077175;28;20451;-73
2024/03/31 03:27:40;;;;;;;40.20;29.30;;;;;;;;;;5074897;28;20220;-73
2024/03/31 03:30:07;;;;;;;47.10;32.60;;;;;;;;;;5077454;28;20452;-74
2024/03/31 03:32:33;;;;;;;43.97;32.30;;;;;;;;;;5075663;28;20213;-73
2024/03/31 03:34:59;;;;;;;41.73;31.43;;;;;;;;;;5080538;28;20436;-74
2024/03/31 03:37:27;;;;;;;49.80;32.90;;;;;;;;;;5075418;28;20268;-72
2024/03/31 03:39:54;;;;;;;46.83;30.23;;;;;;;;;;5076172;28;20476;-75
2024/03/31 03:42:22;;;;;;;43.33;29.00;;;;;;;;;;5073973;28;20483;-75
2024/03/31 03:44:47;;;;;;;35.60;26.17;;;;;;;;;;5077146;28;21002;-75
2024/03/31 03:47:14;;;;;;;37.50;26.43;;;;;;;;;;5075072;28;21036;-69
2024/03/31 03:49:39;;;;;;;39.07;28.60;;;;;;;;;;5082337;28;20712;-74
2024/03/31 03:52:06;;;;;;;35.37;27.63;;;;;;;;;;5081415;28;20452;-76
2024/03/31 03:54:31;;;;;;;35.33;27.77;;;;;;;;;;5076883;28;20689;-74
2024/03/31 03:56:58;;;;;;;30.97;21.50;;;;;;;;;;5077781;28;20462;-75
2024/03/31 03:59:25;;;;;;;25.27;19.37;;;;;;;;;;5072862;28;20214;-74
2024/03/31 04:01:51;;;;;;;23.60;19.93;;;;;;;;;;5076366;28;20503;-76
2024/03/31 04:04:17;;;;;;;20.30;18.17;;;;;;;;;;5075205;28;20455;-74
2024/03/31 04:06:45;;;;;;;22.20;18.47;;;;;;;;;;5072178;28;20457;-74
2024/03/31 04:09:10;;;;;;;30.50;23.53;;;;;;;;;;5076956;28;20636;-76
2024/03/31 04:11:37;;;;;;;25.97;22.43;;;;;;;;;;5073275;28;20451;-77
2024/03/31 04:14:02;;;;;;;35.90;25.17;;;;;;;;;;5078256;28;20222;-75
2024/03/31 04:16:30;;;;;;;28.17;23.73;;;;;;;;;;5077178;28;20450;-73
2024/03/31 04:18:56;;;;;;;24.47;20.23;;;;;;;;;;5074749;28;20255;-72
2024/03/31 04:21:22;;;;;;;25.27;21.30;;;;;;;;;;5077925;28;20488;-76
2024/03/31 04:23:48;;;;;;;33.53;22.27;;;;;;;;;;5075399;28;20213;-75
2024/03/31 04:26:14;;;;;;;27.43;22.70;;;;;;;;;;5077628;28;20445;-74
2024/03/31 04:28:40;;;;;;;28.63;22.17;;;;;;;;;;5071262;28;20243;-74
2024/03/31 04:31:06;;;;;;;29.43;23.20;;;;;;;;;;5076537;28;20929;-70
2024/03/31 04:33:33;;;;;;;30.30;22.33;;;;;;;;;;5072040;28;20214;-75
2024/03/31 04:36:00;;;;;;;32.07;23.20;;;;;;;;;;5075785;28;20484;-74
2024/03/31 04:38:25;;;;;;;31.60;24.30;;;;;;;;;;5077632;28;20459;-75
2024/03/31 04:40:56;;;;;;;31.07;23.27;;;;;;;;;;5078309;28;20480;-75
2024/03/31 04:43:21;;;;;;;30.13;23.67;;;;;;;;;;5072810;28;20596;-74
2024/03/31 04:45:48;;;;;;;30.97;22.77;;;;;;;;;;5076061;28;20432;-73
2024/03/31 04:48:13;;;;;;;33.30;25.33;;;;;;;;;;5066429;28;20201;-73
2024/03/31 04:50:41;;;;;;;30.80;23.67;;;;;;;;;;5073657;28;20474;-75
2024/03/31 04:53:07;;;;;;;29.13;24.10;;;;;;;;;;5069323;28;20206;-75
2024/03/31 04:55:35;;;;;;;36.13;25.40;;;;;;;;;;5077041;28;20446;-75
2024/03/31 04:58:01;;;;;;;36.07;27.73;;;;;;;;;;5072092;28;20216;-76
2024/03/31 05:00:27;;;;;;;35.00;26.00;;;;;;;;;;5072777;28;20472;-72
2024/03/31 05:02:53;;;;;;;32.90;27.80;;;;;;;;;;5075437;28;20274;-74
2024/03/31 05:05:19;;;;;;;30.87;25.40;;;;;;;;;;5075464;28;20448;-75
2024/03/31 05:07:46;;;;;;;34.17;28.00;;;;;;;;;;5076318;28;20608;-74
2024/03/31 05:10:13;;;;;;;30.43;26.10;;;;;;;;;;5077872;28;20458;-75
2024/03/31 05:12:39;;;;;;;31.57;27.07;;;;;;;;;;5078338;28;20459;-75
2024/03/31 05:15:06;;;;;;;33.50;26.67;;;;;;;;;;5075096;28;20452;-76
2024/03/31 05:17:31;;;;;;;39.10;30.93;;;;;;;;;;5072956;28;20734;-75
2024/03/31 05:19:58;;;;;;;37.40;27.00;;;;;;;;;;5075601;28;20488;-75
2024/03/31 05:22:24;;;;;;;37.17;29.40;;;;;;;;;;5070262;28;20233;-75
2024/03/31 05:24:52;;;;;;;33.53;25.20;;;;;;;;;;5078112;28;20965;-76
2024/03/31 05:27:18;;;;;;;34.03;25.70;;;;;;;;;;5075868;28;20451;-76
2024/03/31 05:29:44;;;;;;;31.93;26.73;;;;;;;;;;5077432;28;20458;-76
2024/03/31 05:32:10;;;;;;;28.70;23.40;;;;;;;;;;5078169;28;20210;-76
2024/03/31 05:34:37;;;;;;;24.80;22.30;;;;;;;;;;5074497;28;20455;-76
2024/03/31 05:37:03;;;;;;;31.73;23.67;;;;;;;;;;5074881;28;20622;-73
2024/03/31 05:39:29;;;;;;;30.73;24.17;;;;;;;;;;5078619;28;20451;-75
2024/03/31 05:41:56;;;;;;;27.73;24.20;;;;;;;;;;5079173;28;20238;-73
2024/03/31 05:44:23;;;;;;;30.13;23.20;;;;;;;;;;5079457;28;20451;-75
2024/03/31 05:46:48;;;;;;;28.87;23.67;;;;;;;;;;5078894;28;20459;-75
2024/03/31 05:49:15;;;;;;;29.70;26.17;;;;;;;;;;5072739;28;20452;-73
2024/03/31 05:51:40;;;;;;;28.03;23.33;;;;;;;;;;5077328;28;20198;-74
2024/03/31 05:54:07;;;;;;;28.80;23.90;;;;;;;;;;5076791;28;20928;-75
2024/03/31 05:56:32;;;;;;;29.20;23.23;;;;;;;;;;5081274;28;20709;-75
2024/03/31 05:59:02;;;;;;;30.83;25.70;;;;;;;;;;5077992;28;20452;-75
2024/03/31 06:01:28;;;;;;;31.60;24.97;;;;;;;;;;5077299;28;20218;-76
2024/03/31 06:03:54;;;;;;;29.53;24.70;;;;;;;;;;5078642;28;20462;-73
2024/03/31 06:06:20;;;;;;;26.87;22.93;;;;;;;;;;5078157;28;20216;-74
2024/03/31 06:08:46;;;;;;;31.43;25.10;;;;;;;;;;5079441;28;20439;-76
2024/03/31 06:11:12;;;;;;;30.27;23.07;;;;;;;;;;5079558;28;20229;-75
2024/03/31 06:13:38;;;;;;;29.07;24.20;;;;;;;;;;5074174;28;20453;-76
2024/03/31 06:16:05;;;;;;;26.33;23.50;;;;;;;;;;5079801;28;20206;-76
2024/03/31 06:18:32;;;;;;;30.80;24.07;;;;;;;;;;5078328;28;20467;-75
2024/03/31 06:20:57;;;;;;;30.20;24.60;;;;;;;;;;5077601;28;20495;-73
2024/03/31 06:23:24;;;;;;;27.50;23.17;;;;;;;;;;5074339;28;20467;-77
2024/03/31 06:25:55;;;;;;;30.87;25.17;;;;;;;;;;5076247;28;20209;-76
2024/03/31 06:28:22;;;;;;;31.03;23.90;;;;;;;;;;5076980;28;20484;-74
2024/03/31 06:30:47;;;;;;;29.73;25.10;;;;;;;;;;5076605;28;20458;-73
2024/03/31 06:33:15;;;;;;;30.67;23.47;;;;;;;;;;5077827;28;20445;-75
2024/03/31 06:35:41;;;;;;;28.00;25.00;;;;;;;;;;5075167;28;20210;-76
2024/03/31 06:38:07;;;;;;;28.57;25.50;;;;;;;;;;5079204;28;20872;-75
2024/03/31 06:40:33;;;;;;;29.37;25.90;;;;;;;;;;5076014;28;20229;-75
2024/03/31 06:42:59;;;;;;;31.67;27.47;;;;;;;;;;5078275;28;20459;-76
2024/03/31 06:45:26;;;;;;;32.03;26.83;;;;;;;;;;5069133;28;20210;-76
2024/03/31 06:47:53;;;;;;;30.87;26.60;;;;;;;;;;5075556;28;20462;-72
2024/03/31 06:50:20;;;;;;;31.27;25.60;;;;;;;;;;5074461;28;21643;-74
2024/03/31 06:52:46;;;;;;;30.90;25.77;;;;;;;;;;5078697;28;20563;-73
2024/03/31 06:55:12;;;;;;;28.77;25.43;;;;;;;;;;5077831;28;20459;-74
2024/03/31 06:57:38;;;;;;;30.23;25.10;;;;;;;;;;5075880;28;20432;-73
2024/03/31 07:00:04;;;;;;;35.83;29.50;;;;;;;;;;5075974;28;20220;-71
2024/03/31 07:02:31;;;;;;;36.40;28.93;;;;;;;;;;5076422;28;20498;-67
2024/03/31 07:04:57;;;;;;;32.43;28.90;;;;;;;;;;5076269;28;20486;-67
2024/03/31 07:07:25;;;;;;;36.33;29.50;;;;;;;;;;5068577;28;20452;-67
2024/03/31 07:09:50;;;;;;;35.33;29.00;;;;;;;;;;5080794;28;20210;-68
2024/03/31 07:12:17;;;;;;;38.23;32.97;;;;;;;;;;5074188;28;20452;-67
2024/03/31 07:14:42;;;;;;;35.40;30.53;;;;;;;;;;5075595;28;20213;-67
2024/03/31 07:17:09;;;;;;;42.50;32.17;;;;;;;;;;5076633;28;20440;-67
2024/03/31 07:19:36;;;;;;;41.20;34.50;;;;;;;;;;5065443;28;20227;-69
2024/03/31 07:22:03;;;;;;;42.53;32.90;;;;;;;;;;5075953;28;20480;-68
2024/03/31 07:24:29;;;;;;;39.50;33.60;;;;;;;;;;5077758;28;20448;-68
2024/03/31 07:26:56;;;;;;;41.63;36.17;;;;;;;;;;5077705;28;20479;-68
2024/03/31 07:29:21;;;;;;;44.37;35.40;;;;;;;;;;5077864;28;20448;-67
2024/03/31 07:31:48;;;;;;;42.77;36.70;;;;;;;;;;5072625;28;20458;-67
2024/03/31 07:34:14;;;;;;;42.53;36.17;;;;;;;;;;5077755;28;20221;-66
2024/03/31 07:36:40;;;;;;;46.13;37.73;;;;;;;;;;5077614;28;20849;-68
2024/03/31 07:39:06;;;;;;;41.63;36.80;;;;;;;;;;5076237;28;20220;-69
2024/03/31 07:41:34;;;;;;;44.53;38.77;;;;;;;;;;5072355;28;20479;-69
2024/03/31 07:43:59;;;;;;;51.07;40.93;;;;;;;;;;5071868;28;20300;-68
2024/03/31 07:46:26;;;;;;;52.83;43.73;;;;;;;;;;5074873;28;20494;-68
2024/03/31 07:48:53;;;;;;;53.53;42.60;;;;;;;;;;5076930;28;20218;-67
2024/03/31 07:51:20;;;;;;;49.37;42.20;;;;;;;;;;5075535;28;20456;-70
2024/03/31 07:53:45;;;;;;;52.10;42.07;;;;;;;;;;5068601;28;21523;-69
2024/03/31 07:56:12;;;;;;;48.80;42.70;;;;;;;;;;5077264;28;20463;-70
2024/03/31 07:58:39;;;;;;;66.80;45.53;;;;;;;;;;5079477;28;20216;-70
2024/03/31 08:01:05;;;;;;;54.73;45.57;;;;;;;;;;5077590;28;20809;-70
2024/03/31 08:03:31;;;;;;;60.73;46.87;;;;;;;;;;5076280;28;20829;-70
2024/03/31 08:05:57;;;;;;;59.10;45.30;;;;;;;;;;5076254;28;20830;-70
2024/03/31 08:08:23;;;;;;;65.00;49.70;;;;;;;;;;5077011;28;20201;-69
2024/03/31 08:10:49;;;;;;;59.67;47.87;;;;;;;;;;5077143;28;20435;-69
2024/03/31 08:13:15;;;;;;;58.63;48.40;;;;;;;;;;5075883;28;20214;-69
2024/03/31 08:15:43;;;;;;;62.83;49.53;;;;;;;;;;5075654;28;20452;-70
2024/03/31 08:18:09;;;;;;;61.13;52.50;;;;;;;;;;5077008;28;20206;-70
2024/03/31 08:20:36;;;;;;;64.50;51.80;;;;;;;;;;5076937;28;20484;-70
2024/03/31 08:23:01;;;;;;;65.90;53.77;;;;;;;;;;5074724;28;20202;-70
2024/03/31 08:25:28;;;;;;;71.37;57.93;;;;;;;;;;5073441;28;20470;-70
2024/03/31 08:27:53;;;;;;;68.60;55.47;;;;;;;;;;5073564;28;20214;-70
2024/03/31 08:30:20;;;;;;;74.50;60.60;;;;;;;;;;5072759;28;20467;-70
2024/03/31 08:32:47;;;;;;;79.83;58.57;;;;;;;;;;5071872;28;20773;-70
2024/03/31 08:35:14;;;;;;;75.27;59.60;;;;;;;;;;5070721;28;20540;-69
2024/03/31 08:37:39;;;;;;;73.30;57.13;;;;;;;;;;5073340;28;20467;-69
2024/03/31 08:40:07;;;;;;;71.57;56.73;;;;;;;;;;5073077;28;20452;-70
2024/03/31 08:42:37;;;;;;;81.70;64.03;;;;;;;;;;5073529;28;20293;-70
2024/03/31 08:45:04;;;;;;;80.33;61.27;;;;;;;;;;5073164;28;20464;-70
2024/03/31 08:47:33;;;;;;;82.07;60.63;;;;;;;;;;5072779;28;20817;-70
2024/03/31 08:50:01;;;;;;;78.37;60.87;;;;;;;;;;5074559;28;20470;-70
2024/03/31 08:52:26;;;;;;;78.33;60.60;;;;;;;;;;5073742;28;20456;-70
2024/03/31 08:54:54;;;;;;;63.37;55.00;;;;;;;;;;5075382;28;20470;-68
2024/03/31 08:57:20;;;;;;;71.17;60.23;;;;;;;;;;5066419;28;20218;-68
2024/03/31 08:59:47;;;;;;;75.27;59.57;;;;;;;;;;5076181;28;20807;-67
2024/03/31 09:02:13;;;;;;;75.83;58.40;;;;;;;;;;5069989;28;20891;-68
2024/03/31 09:04:40;;;;;;;73.00;58.10;;;;;;;;;;5071988;28;20464;-69
2024/03/31 09:07:07;;;;;;;65.50;56.10;;;;;;;;;;5077196;28;20861;-69
2024/03/31 09:09:34;;;;;;;70.43;54.23;;;;;;;;;;5077093;28;20464;-70
2024/03/31 09:12:00;;;;;;;67.20;54.83;;;;;;;;;;5078413;28;20459;-69
2024/03/31 09:14:26;;;;;;;70.67;54.23;;;;;;;;;;5075249;28;20455;-69
2024/03/31 09:16:52;;;;;;;64.17;53.07;;;;;;;;;;5068744;28;20483;-69
2024/03/31 09:19:18;;;;;;;64.30;50.30;;;;;;;;;;5075632;28;20476;-70
2024/03/31 09:21:44;;;;;;;71.27;56.30;;;;;;;;;;5076159;28;20276;-69
2024/03/31 09:24:12;;;;;;;70.43;55.37;;;;;;;;;;5080675;28;20456;-69
2024/03/31 09:26:38;;;;;;;71.20;54.60;;;;;;;;;;5080561;28;20479;-67
2024/03/31 09:29:04;;;;;;;72.37;54.37;;;;;;;;;;5076226;28;20471;-68
2024/03/31 09:31:30;;;;;;;62.53;52.50;;;;;;;;;;5070161;28;20604;-67
2024/03/31 09:33:57;;;;;;;59.03;48.83;;;;;;;;;;5069841;28;20467;-68
2024/03/31 09:36:22;;;;;;;57.27;48.73;;;;;;;;;;5075891;28;20256;-67
2024/03/31 09:38:48;;;;;;;59.77;48.57;;;;;;;;;;5076430;28;20456;-68
2024/03/31 09:41:34;;;;;;;59.77;47.67;;;;;;;;;;5075142;28;20245;-67
2024/03/31 09:44:02;;;;;;;59.03;45.40;;;;;;;;;;5072319;28;20515;-67
2024/03/31 09:46:27;;;;;;;52.63;44.67;;;;;;;;;;5073217;28;20491;-65
2024/03/31 09:48:59;;;;;;;50.53;45.00;;;;;;;;;;5072103;28;20487;-66
2024/03/31 09:51:27;;;;;;;51.07;45.50;;;;;;;;;;5070657;28;20368;-66
2024/03/31 09:53:55;;;;;;;50.03;44.33;;;;;;;;;;5071543;28;20475;-66
2024/03/31 09:56:24;;;;;;;54.17;42.13;;;;;;;;;;5075628;28;20476;-67
2024/03/31 09:58:52;;;;;;;48.93;40.57;;;;;;;;;;5074859;28;21135;-67
2024/03/31 10:01:20;;;;;;;50.70;41.77;;;;;;;;;;5076184;28;21179;-67
2024/03/31 10:03:49;;;;;;;48.60;39.27;;;;;;;;;;5074652;28;20463;-66
2024/03/31 10:06:15;;;;;;;47.07;39.30;;;;;;;;;;5075663;28;20471;-66
2024/03/31 10:08:41;;;;;;;47.47;37.30;;;;;;;;;;5076344;28;20459;-66
2024/03/31 10:11:07;;;;;;;43.77;35.13;;;;;;;;;;5077310;28;20202;-66
2024/03/31 10:13:34;;;;;;;41.70;34.10;;;;;;;;;;5078875;28;21117;-67
2024/03/31 10:15:59;;;;;;;37.07;30.07;;;;;;;;;;5072818;28;20227;-66
2024/03/31 10:18:28;;;;;;;33.63;29.00;;;;;;;;;;5078959;28;20460;-66
2024/03/31 10:20:54;;;;;;;30.93;25.60;;;;;;;;;;5081752;28;20233;-66
2024/03/31 10:23:21;;;;;;;29.57;24.80;;;;;;;;;;5079702;28;20460;-66
2024/03/31 10:25:46;;;;;;;31.97;24.37;;;;;;;;;;5075109;28;20517;-66
2024/03/31 10:28:13;;;;;;;28.27;24.37;;;;;;;;;;5082535;28;20942;-67
2024/03/31 10:30:39;;;;;;;27.70;22.67;;;;;;;;;;5076781;28;20241;-67
2024/03/31 10:33:05;;;;;;;23.23;20.77;;;;;;;;;;5077897;28;20467;-67
2024/03/31 10:35:33;;;;;;;19.00;17.00;;;;;;;;;;5078287;28;20222;-66
2024/03/31 10:38:00;;;;;;;17.80;15.63;;;;;;;;;;5078257;28;20460;-66
2024/03/31 10:40:26;;;;;;;18.47;16.40;;;;;;;;;;5077546;28;20574;-67
2024/03/31 10:42:54;;;;;;;17.47;15.30;;;;;;;;;;5086191;28;20479;-67
2024/03/31 10:45:19;;;;;;;22.90;18.20;;;;;;;;;;5076962;28;20460;-66
2024/03/31 10:47:46;;;;;;;20.97;15.97;;;;;;;;;;5078786;28;20448;-66
2024/03/31 10:50:11;;;;;;;19.83;16.27;;;;;;;;;;5076705;28;20201;-66
2024/03/31 10:52:39;;;;;;;18.87;15.67;;;;;;;;;;5077970;28;20525;-66
2024/03/31 10:55:06;;;;;;;16.93;15.33;;;;;;;;;;5075056;28;20230;-66
2024/03/31 10:57:36;;;;;;;23.40;14.90;;;;;;;;;;5074563;28;20479;-66
2024/03/31 11:00:03;;;;;;;20.67;15.80;;;;;;;;;;5074431;28;20463;-66
2024/03/31 11:02:33;;;;;;;16.97;13.13;;;;;;;;;;5074304;28;20799;-66
2024/03/31 11:05:00;;;;;;;19.00;13.50;;;;;;;;;;5073813;28;20545;-66
2024/03/31 11:07:27;;;;;;;15.93;12.17;;;;;;;;;;5075021;28;20443;-67
2024/03/31 11:09:54;;;;;;;18.57;12.67;;;;;;;;;;5074630;28;21007;-66
2024/03/31 11:12:21;;;;;;;17.33;12.73;;;;;;;;;;5073399;28;20965;-66
2024/03/31 11:14:46;;;;;;;13.73;10.93;;;;;;;;;;5072825;28;20463;-66
2024/03/31 11:17:13;;;;;;;21.33;15.40;;;;;;;;;;5074424;28;20486;-67
2024/03/31 11:19:38;;;;;;;14.70;13.20;;;;;;;;;;5073583;28;20248;-66
2024/03/31 11:22:06;;;;;;;16.50;13.07;;;;;;;;;;5076387;28;20476;-67
2024/03/31 11:24:32;;;;;;;14.87;12.47;;;;;;;;;;5079311;28;20255;-67
2024/03/31 11:27:00;;;;;;;14.97;13.43;;;;;;;;;;5075422;28;20490;-66
2024/03/31 11:29:25;;;;;;;13.93;12.60;;;;;;;;;;5073937;28;20463;-66
2024/03/31 11:31:52;;;;;;;13.53;11.67;;;;;;;;;;5084976;28;20432;-67
2024/03/31 11:34:18;;;;;;;15.83;11.83;;;;;;;;;;5077195;28;20248;-67
2024/03/31 11:36:44;;;;;;;13.37;10.90;;;;;;;;;;5076294;28;20460;-67
2024/03/31 11:39:11;;;;;;;13.97;12.20;;;;;;;;;;5070522;28;20206;-67
2024/03/31 11:41:37;;;;;;;14.33;12.80;;;;;;;;;;5076289;28;20491;-67
2024/03/31 11:44:04;;;;;;;19.60;12.30;;;;;;;;;;5078408;28;20452;-68
2024/03/31 11:46:31;;;;;;;17.27;13.40;;;;;;;;;;5076691;28;20492;-67
2024/03/31 11:48:57;;;;;;;20.00;14.60;;;;;;;;;;5077027;28;20474;-67
2024/03/31 11:51:24;;;;;;;16.10;13.30;;;;;;;;;;5077509;28;20463;-67
2024/03/31 11:53:49;;;;;;;16.63;14.77;;;;;;;;;;5077780;28;20996;-67
2024/03/31 11:56:16;;;;;;;17.43;14.60;;;;;;;;;;5077290;28;20474;-68
2024/03/31 11:58:41;;;;;;;17.40;13.73;;;;;;;;;;5075734;28;20236;-67
2024/03/31 12:01:09;;;;;;;20.37;15.40;;;;;;;;;;5068115;28;20485;-67
2024/03/31 12:03:35;;;;;;;22.13;15.17;;;;;;;;;;5073168;28;20205;-67
2024/03/31 12:06:02;;;;;;;18.13;15.57;;;;;;;;;;5076476;28;20459;-70
2024/03/31 12:08:27;;;;;;;18.67;14.93;;;;;;;;;;5074339;28;20197;-72
2024/03/31 12:10:54;;;;;;;16.70;13.20;;;;;;;;;;5077237;28;20506;-72
2024/03/31 12:13:20;;;;;;;20.80;12.87;;;;;;;;;;5077311;28;20210;-73
2024/03/31 12:15:47;;;;;;;19.57;14.60;;;;;;;;;;5071882;28;20460;-71
2024/03/31 12:18:13;;;;;;;22.10;14.07;;;;;;;;;;5069005;28;20922;-72
2024/03/31 12:20:40;;;;;;;15.30;13.70;;;;;;;;;;5071710;28;20490;-72
2024/03/31 12:23:06;;;;;;;19.37;14.17;;;;;;;;;;5072475;28;20517;-73
2024/03/31 12:25:33;;;;;;;17.97;13.60;;;;;;;;;;5075019;28;20449;-71
2024/03/31 12:27:59;;;;;;;18.20;13.20;;;;;;;;;;5070077;28;20474;-72
2024/03/31 12:30:26;;;;;;;19.50;14.90;;;;;;;;;;5073099;28;20546;-72
2024/03/31 12:32:51;;;;;;;16.63;13.00;;;;;;;;;;5072897;28;20240;-71
2024/03/31 12:35:19;;;;;;;15.03;12.37;;;;;;;;;;5071683;28;20472;-73
2024/03/31 12:37:45;;;;;;;17.67;13.27;;;;;;;;;;5068838;28;20252;-72
2024/03/31 12:40:11;;;;;;;18.57;13.00;;;;;;;;;;5071553;28;20464;-73
2024/03/31 12:42:40;;;;;;;19.43;13.83;;;;;;;;;;5072897;28;20300;-71
2024/03/31 12:45:06;;;;;;;17.93;12.10;;;;;;;;;;5072273;28;20460;-72
2024/03/31 12:47:32;;;;;;;16.53;12.57;;;;;;;;;;5070001;28;20472;-71
2024/03/31 12:49:58;;;;;;;16.93;13.27;;;;;;;;;;5070527;28;20452;-71
2024/03/31 12:52:26;;;;;;;22.17;13.57;;;;;;;;;;5076235;28;20217;-72
2024/03/31 12:54:53;;;;;;;22.27;14.10;;;;;;;;;;5075941;28;20460;-73
2024/03/31 12:57:18;;;;;;;16.83;11.50;;;;;;;;;;5073285;28;20471;-75
2024/03/31 12:59:45;;;;;;;25.47;13.20;;;;;;;;;;5076572;28;20456;-75
2024/03/31 13:02:10;;;;;;;17.67;11.70;;;;;;;;;;5075905;28;20271;-75
2024/03/31 13:04:38;;;;;;;30.60;14.50;;;;;;;;;;5073521;28;20459;-77
2024/03/31 13:07:04;;;;;;;18.03;14.03;;;;;;;;;;5075903;28;20233;-77
2024/03/31 13:09:31;;;;;;;14.67;13.13;;;;;;;;;;5072512;28;20451;-74
2024/03/31 13:11:57;;;;;;;17.33;11.37;;;;;;;;;;5074736;28;20205;-76
2024/03/31 13:14:23;;;;;;;21.87;14.27;;;;;;;;;;5074235;28;20551;-78
2024/03/31 13:16:49;;;;;;;15.60;12.20;;;;;;;;;;5074792;28;20239;-79
2024/03/31 13:19:15;;;;;;;15.60;10.60;;;;;;;;;;5076081;28;20467;-74
2024/03/31 13:21:41;;;;;;;18.77;11.80;;;;;;;;;;5077275;28;20240;-73
2024/03/31 13:24:08;;;;;;;15.93;7.90;;;;;;;;;;5082586;28;20471;-78
2024/03/31 13:26:34;;;;;;;11.70;6.67;;;;;;;;;;5075684;28;20204;-74
2024/03/31 13:29:01;;;;;;;20.50;8.73;;;;;;;;;;5072352;28;20491;-74
2024/03/31 13:31:26;;;;;;;13.60;8.17;;;;;;;;;;5076274;28;20463;-77
2024/03/31 13:33:53;;;;;;;22.87;9.30;;;;;;;;;;5076237;28;20489;-79
2024/03/31 13:36:18;;;;;;;22.10;7.20;;;;;;;;;;5075507;28;21748;-74
2024/03/31 13:38:45;;;;;;;16.90;8.80;;;;;;;;;;5073195;28;20464;-74
2024/03/31 13:41:11;;;;;;;13.13;7.90;;;;;;;;;;5076256;28;20229;-72
2024/03/31 13:43:38;;;;;;;14.07;8.50;;;;;;;;;;5075418;28;20496;-72
2024/03/31 13:46:04;;;;;;;20.67;8.00;;;;;;;;;;5076377;28;20209;-72
2024/03/31 13:48:30;;;;;;;14.70;7.13;;;;;;;;;;5072145;28;20490;-74
2024/03/31 13:50:56;;;;;;;13.63;7.70;;;;;;;;;;5075830;28;20301;-74
2024/03/31 13:53:22;;;;;;;14.83;7.93;;;;;;;;;;5073797;28;20550;-74
2024/03/31 13:55:48;;;;;;;12.73;7.23;;;;;;;;;;5075859;28;20229;-74
2024/03/31 13:58:14;;;;;;;13.90;7.20;;;;;;;;;;5075193;28;20455;-70
2024/03/31 14:00:41;;;;;;;11.73;7.57;;;;;;;;;;5079549;28;20214;-75
2024/03/31 14:03:08;;;;;;;18.30;8.23;;;;;;;;;;5073048;28;20555;-74
2024/03/31 14:05:33;;;;;;;16.20;7.87;;;;;;;;;;5077957;28;20475;-76
2024/03/31 14:07:59;;;;;;;11.80;6.60;;;;;;;;;;5079135;28;20790;-75
2024/03/31 14:10:25;;;;;;;20.10;8.37;;;;;;;;;;5072139;28;20202;-77
2024/03/31 14:12:51;;;;;;;13.60;6.70;;;;;;;;;;5077891;28;20647;-77